Norbank — PGIS — position and weather

sailwx.info

Track history (hours):
 
Tides and Currents Weather Stations Pressure Air Temp Water Temp Dewpoint Dewpoint Depression Visibility Wind Speed Wind Dir Waves Ship Positions

Norbank

Operator: P & O Ferries

Last reported at 2014-Oct-31 12:33 UTC. Time now 2014-Nov-01 01:22 UTC.
Position N 53°34' W 004°07'.

Length 167 m; draft 5.6 m.

Type: Ship (hazmat cat A). MMSI: 246213000.

Date/timePositionNaut miles runAvg speedWind from/ knotsBaromVisibWave heightAir tempDewpointWater temp
2014-Oct-31 12:33N 53°34' W 004°07'1918.4
2014-Oct-31 11:32N 53°33' W 003°36'1717.2
2014-Oct-31 10:33N 53°32' W 003°08'6 5.7
2014-Oct-31 09:33N 53°27' W 003°01'0 0.2
2014-Oct-31 08:11N 53°27' W 003°01'0 0.0
2014-Oct-31 07:28N 53°27' W 003°01'0 0.0
2014-Oct-31 06:28N 53°27' W 003°01'0 0.0
2014-Oct-31 05:31N 53°27' W 003°01'2 2.1
2014-Oct-31 04:33N 53°28' W 003°04'1515.0
2014-Oct-31 03:33N 53°31' W 003°29'1716.3
2014-Oct-31 02:31N 53°33' W 003°57'11 0.8
2014-Oct-30 12:32N 53°34' W 003°39'1818.1
2014-Oct-30 11:33N 53°32' W 003°09'7 6.6
2014-Oct-30 10:32N 53°27' W 003°01'0 0.3
2014-Oct-30 09:21N 53°27' W 003°01'0 0.0
2014-Oct-30 08:20N 53°27' W 003°01'0 0.0
2014-Oct-30 07:26N 53°27' W 003°01'0 0.0
2014-Oct-30 06:19N 53°27' W 003°01'0 0.0
2014-Oct-30 05:32N 53°27' W 003°01'1 1.5
2014-Oct-30 04:33N 53°28' W 003°03'1615.5
2014-Oct-30 03:32N 53°31' W 003°29'16 1.1
2014-Oct-29 12:32N 53°34' W 003°57'1817.9
2014-Oct-29 11:33N 53°33' W 003°27'1515.6
2014-Oct-29 10:33N 53°28' W 003°03'1 1.0
2014-Oct-29 09:33N 53°27' W 003°01'0 0.0
2014-Oct-29 08:28N 53°27' W 003°01'0 0.0
2014-Oct-29 07:34N 53°27' W 003°01'0 0.0
2014-Oct-29 06:33N 53°27' W 003°01'0 0.0
2014-Oct-29 05:33N 53°27' W 003°01'2 1.6
2014-Oct-29 04:33N 53°28' W 003°04'1514.9
2014-Oct-29 03:33N 53°31' W 003°28'23 1.8
2014-Oct-28 14:08N 53°35' W 004°07'1220.3
2014-Oct-28 13:33N 53°33' W 003°48'1919.4
2014-Oct-28 12:33N 53°31' W 003°15'10 7.2
2014-Oct-28 11:11N 53°26' W 003°01'1 0.4
2014-Oct-28 08:19N 53°27' W 003°01'0 0.0
2014-Oct-28 07:25N 53°27' W 003°01'0 0.0
2014-Oct-28 06:18N 53°27' W 003°01'0 0.0
2014-Oct-28 05:24N 53°27' W 003°01'1 0.7
2014-Oct-28 04:33N 53°27' W 003°01'1313.3
2014-Oct-28 03:33N 53°31' W 003°22'1817.5
2014-Oct-28 02:33N 53°33' W 003°52'1 0.0
2014-Oct-27 03:15N 53°34' W 003°53'1519.7
2014-Oct-27 02:30N 53°33' W 003°28'1717.6
2014-Oct-27 01:33N 53°27' W 003°02'1 0.6
2014-Oct-27 00:31N 53°27' W 003°01'0 0.0
2014-Oct-26 23:24N 53°27' W 003°01'0 0.0
2014-Oct-26 22:30N 53°27' W 003°01'0 0.0
2014-Oct-26 21:33N 53°27' W 003°01'1 1.0
2014-Oct-26 20:33N 53°26' W 003°01'5 5.0
2014-Oct-26 19:33N 53°30' W 003°06'1917.6
2014-Oct-26 18:29N 53°31' W 003°38'8 0.6
2014-Oct-26 03:09N 53°34' W 003°51'1016.3
2014-Oct-26 02:34N 53°33' W 003°35'1615.5
2014-Oct-26 01:33N 53°32' W 003°09'6 6.5
2014-Oct-26 00:33N 53°27' W 003°01'0 0.0
2014-Oct-25 23:21N 53°27' W 003°01'0 0.0
2014-Oct-25 22:33N 53°27' W 003°01'0 0.0
2014-Oct-25 21:33N 53°27' W 003°01'0 0.0
2014-Oct-25 20:33N 53°27' W 003°01'2 2.1
2014-Oct-25 19:34N 53°28' W 003°04'1616.1
2014-Oct-25 18:33N 53°31' W 003°31'9 0.7
2014-Oct-25 05:16N 53°33' W 003°47'1520.7
2014-Oct-25 04:34N 53°33' W 003°22'1413.6
2014-Oct-25 03:33N 53°27' W 003°01'0 0.4
2014-Oct-25 02:33N 53°27' W 003°01'0 0.0
2014-Oct-25 01:32N 53°27' W 003°01'0 0.0
2014-Oct-25 00:32N 53°27' W 003°01'0 0.4
2014-Oct-24 23:33N 53°27' W 003°01'1 1.2
2014-Oct-24 22:33N 53°26' W 003°01'8 8.0
2014-Oct-24 21:33N 53°32' W 003°10'1716.4
2014-Oct-24 20:31N 53°31' W 003°39'3 0.2
2014-Oct-24 05:33N 53°33' W 003°42'1919.2
2014-Oct-24 04:33N 53°32' W 003°10'7 7.1
2014-Oct-24 03:33N 53°27' W 003°01'0 0.4
2014-Oct-24 02:30N 53°27' W 003°01'0 0.0
2014-Oct-24 01:30N 53°27' W 003°01'0 0.0
2014-Oct-24 00:29N 53°27' W 003°01'0 0.0
2014-Oct-23 23:29N 53°27' W 003°01'0 0.5
2014-Oct-23 22:33N 53°27' W 003°01'9 9.0
2014-Oct-23 21:33N 53°31' W 003°14'1717.1
2014-Oct-23 20:33N 53°31' W 003°43'1716.8
2014-Oct-23 19:31N 53°35' W 004°12'5 0.4
2014-Oct-23 06:30N 53°34' W 004°04'1819.5
2014-Oct-23 05:33N 53°33' W 003°33'1716.9
2014-Oct-23 04:34N 53°30' W 003°05'4 3.7
2014-Oct-23 03:33N 53°27' W 003°01'0 0.4
2014-Oct-23 02:31N 53°27' W 003°01'0 0.0
2014-Oct-23 01:30N 53°27' W 003°01'0 0.0
2014-Oct-23 00:30N 53°27' W 003°01'0 0.0
2014-Oct-22 23:29N 53°27' W 003°01'0 0.5
2014-Oct-22 22:33N 53°27' W 003°01'1010.4
2014-Oct-22 21:33N 53°31' W 003°17'1717.4
2014-Oct-22 20:33N 53°32' W 003°46'1615.8
2014-Oct-22 19:32N 53°35' W 004°13'2 0.2
2014-Oct-22 08:04N 53°33' W 004°11'918.7
2014-Oct-22 07:33N 53°33' W 003°55'1918.8
2014-Oct-22 06:34N 53°33' W 003°23'1414.1
2014-Oct-22 05:33N 53°27' W 003°02'1 0.6
2014-Oct-22 04:33N 53°27' W 003°01'0 0.0
2014-Oct-22 03:32N 53°27' W 003°01'0 0.0
2014-Oct-22 02:26N 53°27' W 003°01'0 0.2
2014-Oct-22 01:33N 53°27' W 003°01'2 1.7
2014-Oct-22 00:33N 53°28' W 003°04'1515.3
2014-Oct-21 23:33N 53°31' W 003°29'1919.5
2014-Oct-21 22:33N 53°33' W 004°02'  
Track history (hours):
 
Tides and Currents Weather Stations Pressure Air Temp Water Temp Dewpoint Dewpoint Depression Visibility Wind Speed Wind Dir Waves Ship Positions

Norbank

Operator: P & O Ferries

Last reported at 2014-Oct-31 12:33 UTC. Time now 2014-Nov-01 01:22 UTC.
Position N 53°34' W 004°07'.

Length 167 m; draft 5.6 m.

Type: Ship (hazmat cat A). MMSI: 246213000.

Date/timePositionNaut miles runAvg speedWind from/ knotsBaromVisibWave heightAir tempDewpointWater temp
2014-Oct-31 12:33N 53°34' W 004°07'1918.4
2014-Oct-31 11:32N 53°33' W 003°36'1717.2
2014-Oct-31 10:33N 53°32' W 003°08'6 5.7
2014-Oct-31 09:33N 53°27' W 003°01'0 0.2
2014-Oct-31 08:11N 53°27' W 003°01'0 0.0
2014-Oct-31 07:28N 53°27' W 003°01'0 0.0
2014-Oct-31 06:28N 53°27' W 003°01'0 0.0
2014-Oct-31 05:31N 53°27' W 003°01'2 2.1
2014-Oct-31 04:33N 53°28' W 003°04'1515.0
2014-Oct-31 03:33N 53°31' W 003°29'1716.3
2014-Oct-31 02:31N 53°33' W 003°57'11 0.8
2014-Oct-30 12:32N 53°34' W 003°39'1818.1
2014-Oct-30 11:33N 53°32' W 003°09'7 6.6
2014-Oct-30 10:32N 53°27' W 003°01'0 0.3
2014-Oct-30 09:21N 53°27' W 003°01'0 0.0
2014-Oct-30 08:20N 53°27' W 003°01'0 0.0
2014-Oct-30 07:26N 53°27' W 003°01'0 0.0
2014-Oct-30 06:19N 53°27' W 003°01'0 0.0
2014-Oct-30 05:32N 53°27' W 003°01'1 1.5
2014-Oct-30 04:33N 53°28' W 003°03'1615.5
2014-Oct-30 03:32N 53°31' W 003°29'16 1.1
2014-Oct-29 12:32N 53°34' W 003°57'1817.9
2014-Oct-29 11:33N 53°33' W 003°27'1515.6
2014-Oct-29 10:33N 53°28' W 003°03'1 1.0
2014-Oct-29 09:33N 53°27' W 003°01'0 0.0
2014-Oct-29 08:28N 53°27' W 003°01'0 0.0
2014-Oct-29 07:34N 53°27' W 003°01'0 0.0
2014-Oct-29 06:33N 53°27' W 003°01'0 0.0
2014-Oct-29 05:33N 53°27' W 003°01'2 1.6
2014-Oct-29 04:33N 53°28' W 003°04'1514.9
2014-Oct-29 03:33N 53°31' W 003°28'23 1.8
2014-Oct-28 14:08N 53°35' W 004°07'1220.3
2014-Oct-28 13:33N 53°33' W 003°48'1919.4
2014-Oct-28 12:33N 53°31' W 003°15'10 7.2
2014-Oct-28 11:11N 53°26' W 003°01'1 0.4
2014-Oct-28 08:19N 53°27' W 003°01'0 0.0
2014-Oct-28 07:25N 53°27' W 003°01'0 0.0
2014-Oct-28 06:18N 53°27' W 003°01'0 0.0
2014-Oct-28 05:24N 53°27' W 003°01'1 0.7
2014-Oct-28 04:33N 53°27' W 003°01'1313.3
2014-Oct-28 03:33N 53°31' W 003°22'1817.5
2014-Oct-28 02:33N 53°33' W 003°52'1 0.0
2014-Oct-27 03:15N 53°34' W 003°53'1519.7
2014-Oct-27 02:30N 53°33' W 003°28'1717.6
2014-Oct-27 01:33N 53°27' W 003°02'1 0.6
2014-Oct-27 00:31N 53°27' W 003°01'0 0.0
2014-Oct-26 23:24N 53°27' W 003°01'0 0.0
2014-Oct-26 22:30N 53°27' W 003°01'0 0.0
2014-Oct-26 21:33N 53°27' W 003°01'1 1.0
2014-Oct-26 20:33N 53°26' W 003°01'5 5.0
2014-Oct-26 19:33N 53°30' W 003°06'1917.6
2014-Oct-26 18:29N 53°31' W 003°38'8 0.6
2014-Oct-26 03:09N 53°34' W 003°51'1016.3
2014-Oct-26 02:34N 53°33' W 003°35'1615.5
2014-Oct-26 01:33N 53°32' W 003°09'6 6.5
2014-Oct-26 00:33N 53°27' W 003°01'0 0.0
2014-Oct-25 23:21N 53°27' W 003°01'0 0.0
2014-Oct-25 22:33N 53°27' W 003°01'0 0.0
2014-Oct-25 21:33N 53°27' W 003°01'0 0.0
2014-Oct-25 20:33N 53°27' W 003°01'2 2.1
2014-Oct-25 19:34N 53°28' W 003°04'1616.1
2014-Oct-25 18:33N 53°31' W 003°31'9 0.7
2014-Oct-25 05:16N 53°33' W 003°47'1520.7
2014-Oct-25 04:34N 53°33' W 003°22'1413.6
2014-Oct-25 03:33N 53°27' W 003°01'0 0.4
2014-Oct-25 02:33N 53°27' W 003°01'0 0.0
2014-Oct-25 01:32N 53°27' W 003°01'0 0.0
2014-Oct-25 00:32N 53°27' W 003°01'0 0.4
2014-Oct-24 23:33N 53°27' W 003°01'1 1.2
2014-Oct-24 22:33N 53°26' W 003°01'8 8.0
2014-Oct-24 21:33N 53°32' W 003°10'1716.4
2014-Oct-24 20:31N 53°31' W 003°39'3 0.2
2014-Oct-24 05:33N 53°33' W 003°42'1919.2
2014-Oct-24 04:33N 53°32' W 003°10'7 7.1
2014-Oct-24 03:33N 53°27' W 003°01'0 0.4
2014-Oct-24 02:30N 53°27' W 003°01'0 0.0
2014-Oct-24 01:30N 53°27' W 003°01'0 0.0
2014-Oct-24 00:29N 53°27' W 003°01'0 0.0
2014-Oct-23 23:29N 53°27' W 003°01'0 0.5
2014-Oct-23 22:33N 53°27' W 003°01'9 9.0
2014-Oct-23 21:33N 53°31' W 003°14'1717.1
2014-Oct-23 20:33N 53°31' W 003°43'1716.8
2014-Oct-23 19:31N 53°35' W 004°12'5 0.4
2014-Oct-23 06:30N 53°34' W 004°04'1819.5
2014-Oct-23 05:33N 53°33' W 003°33'1716.9
2014-Oct-23 04:34N 53°30' W 003°05'4 3.7
2014-Oct-23 03:33N 53°27' W 003°01'0 0.4
2014-Oct-23 02:31N 53°27' W 003°01'0 0.0
2014-Oct-23 01:30N 53°27' W 003°01'0 0.0
2014-Oct-23 00:30N 53°27' W 003°01'0 0.0
2014-Oct-22 23:29N 53°27' W 003°01'0 0.5
2014-Oct-22 22:33N 53°27' W 003°01'1010.4
2014-Oct-22 21:33N 53°31' W 003°17'1717.4
2014-Oct-22 20:33N 53°32' W 003°46'1615.8
2014-Oct-22 19:32N 53°35' W 004°13'2 0.2
2014-Oct-22 08:04N 53°33' W 004°11'918.7
2014-Oct-22 07:33N 53°33' W 003°55'1918.8
2014-Oct-22 06:34N 53°33' W 003°23'1414.1
2014-Oct-22 05:33N 53°27' W 003°02'1 0.6
2014-Oct-22 04:33N 53°27' W 003°01'0 0.0
2014-Oct-22 03:32N 53°27' W 003°01'0 0.0
2014-Oct-22 02:26N 53°27' W 003°01'0 0.2
2014-Oct-22 01:33N 53°27' W 003°01'2 1.7
2014-Oct-22 00:33N 53°28' W 003°04'1515.3
2014-Oct-21 23:33N 53°31' W 003°29'1919.5
2014-Oct-21 22:33N 53°33' W 004°02'  

Dump ship's entire track history